Kobe Express — JG5504 — position and weather

sailwx.info

Track history (hours):
 
Tides and Currents Weather Stations Pressure Air Temp Water Temp Dewpoint Dewpoint Depression Visibility Wind Speed Wind Dir Waves Ship Positions

Kobe Express

Last reported at 2017-Oct-16 12:36 UTC. Time now 2017-Oct-17 04:19 UTC.
Position N 33°58' E 134°55'.

Length 170 m; draft 6.5 m.

Type: Passenger vessel. MMSI: 431301684.

Date/timePositionNaut miles runAvg speedWind from/ knotsBaromVisibWave heightAir tempDewpointWater temp
2017-Oct-16 12:36N 33°58' E 134°55'222.1
2017-Oct-16 12:30N 34°00' E 134°55'1122.0
2017-Oct-16 12:00N 34°11' E 134°57'1121.5
2017-Oct-16 11:29N 34°22' E 135°00'1022.5
2017-Oct-16 11:01N 34°31' E 135°07'1019.1
2017-Oct-16 10:30N 34°40' E 135°12'1 2.0
2017-Oct-16 10:00N 34°41' E 135°12'0 0.0
2017-Oct-16 09:30N 34°41' E 135°12'0 0.0
2017-Oct-16 08:59N 34°41' E 135°12'0 0.0
2017-Oct-16 08:30N 34°41' E 135°12'0 0.0
2017-Oct-16 08:00N 34°41' E 135°12'0 0.0
2017-Oct-16 07:30N 34°41' E 135°12'0 0.0
2017-Oct-16 07:00N 34°41' E 135°12'0 0.0
2017-Oct-16 06:30N 34°41' E 135°12'0 0.0
2017-Oct-16 06:00N 34°41' E 135°12'0 0.0
2017-Oct-16 05:30N 34°41' E 135°12'0 0.0
2017-Oct-16 05:00N 34°41' E 135°12'0 0.0
2017-Oct-16 04:30N 34°41' E 135°12'0 0.0
2017-Oct-16 04:00N 34°41' E 135°12'0 0.0
2017-Oct-16 03:30N 34°41' E 135°12'0 0.0
2017-Oct-16 03:00N 34°41' E 135°12'0 0.0
2017-Oct-16 02:30N 34°41' E 135°12'0 0.0
2017-Oct-16 02:00N 34°41' E 135°12'0 0.0
2017-Oct-16 01:30N 34°41' E 135°12'0 0.0
2017-Oct-16 01:00N 34°41' E 135°12'0 0.0
2017-Oct-16 00:30N 34°41' E 135°12'0 0.0
2017-Oct-16 00:00N 34°41' E 135°12'0 0.0
2017-Oct-15 23:30N 34°41' E 135°12'0 0.0
2017-Oct-15 23:00N 34°41' E 135°12'0 0.0
2017-Oct-15 22:30N 34°41' E 135°12'3 6.5
2017-Oct-15 22:00N 34°38' E 135°11'1122.5
2017-Oct-15 21:30N 34°28' E 135°05'1223.2
2017-Oct-15 21:01N 34°17' E 134°59'1223.1
2017-Oct-15 20:31N 34°06' E 134°58'5 0.2
2017-Oct-14 12:17N 34°01' E 134°55'621.9
2017-Oct-14 12:00N 34°07' E 134°56'1122.3
2017-Oct-14 11:30N 34°18' E 134°58'1122.4
2017-Oct-14 11:00N 34°28' E 135°04'1121.8
2017-Oct-14 10:30N 34°37' E 135°10'4 7.6
2017-Oct-14 10:00N 34°41' E 135°12'0 0.0
2017-Oct-14 09:30N 34°41' E 135°12'0 0.0
2017-Oct-14 09:00N 34°41' E 135°12'0 0.0
2017-Oct-14 08:30N 34°41' E 135°12'0 0.0
2017-Oct-14 08:00N 34°41' E 135°12'0 0.0
2017-Oct-14 07:30N 34°41' E 135°12'0 0.0
2017-Oct-14 07:00N 34°41' E 135°12'0 0.0
2017-Oct-14 06:30N 34°41' E 135°12'0 0.0
2017-Oct-14 06:00N 34°41' E 135°12'0 0.0
2017-Oct-14 05:30N 34°41' E 135°12'0 0.0
2017-Oct-14 05:00N 34°41' E 135°12'0 0.0
2017-Oct-14 04:30N 34°41' E 135°12'0 0.0
2017-Oct-14 04:00N 34°41' E 135°12'0 0.0
2017-Oct-14 03:30N 34°41' E 135°12'0 0.0
2017-Oct-14 03:00N 34°41' E 135°12'0 0.0
2017-Oct-14 02:30N 34°41' E 135°12'0 0.0
2017-Oct-14 02:00N 34°41' E 135°12'0 0.0
2017-Oct-14 01:30N 34°41' E 135°12'0 0.0
2017-Oct-14 01:00N 34°41' E 135°12'0 0.0
2017-Oct-14 00:30N 34°41' E 135°12'0 0.0
2017-Oct-14 00:00N 34°41' E 135°12'0 0.0
2017-Oct-13 23:30N 34°41' E 135°12'0 0.0
2017-Oct-13 23:00N 34°41' E 135°12'0 0.0
2017-Oct-13 22:30N 34°41' E 135°12'0 0.4
2017-Oct-13 22:00N 34°41' E 135°12'816.4
2017-Oct-13 21:31N 34°33' E 135°09'1122.7
2017-Oct-13 21:00N 34°23' E 135°03'1122.2
2017-Oct-13 20:30N 34°12' E 134°59'1223.3
2017-Oct-13 20:00N 34°01' E 134°56'4 0.1
2017-Oct-12 12:23N 33°59' E 134°53'821.6
2017-Oct-12 12:00N 34°07' E 134°55'1122.9
2017-Oct-12 11:30N 34°18' E 134°58'1122.5
2017-Oct-12 11:00N 34°28' E 135°04'1121.8
2017-Oct-12 10:30N 34°38' E 135°10'4 7.3
2017-Oct-12 10:00N 34°41' E 135°12'0 0.0
2017-Oct-12 09:30N 34°41' E 135°12'0 0.0
2017-Oct-12 09:00N 34°41' E 135°12'0 0.0
2017-Oct-12 08:30N 34°41' E 135°12'0 0.0
2017-Oct-12 08:00N 34°41' E 135°12'0 0.0
2017-Oct-12 07:30N 34°41' E 135°12'0 0.0
2017-Oct-12 07:00N 34°41' E 135°12'0 0.0
2017-Oct-12 06:30N 34°41' E 135°12'0 0.0
2017-Oct-12 06:00N 34°41' E 135°12'0 0.0
2017-Oct-12 05:30N 34°41' E 135°12'0 0.0
2017-Oct-12 05:00N 34°41' E 135°12'0 0.0
2017-Oct-12 04:30N 34°41' E 135°12'0 0.0
2017-Oct-12 04:00N 34°41' E 135°12'0 0.0
2017-Oct-12 03:30N 34°41' E 135°12'0 0.0
2017-Oct-12 03:00N 34°41' E 135°12'0 0.0
2017-Oct-12 02:30N 34°41' E 135°12'0 0.0
2017-Oct-12 02:00N 34°41' E 135°12'0 0.0
2017-Oct-12 01:30N 34°41' E 135°12'0 0.0
2017-Oct-12 01:00N 34°41' E 135°12'0 0.0
2017-Oct-12 00:30N 34°41' E 135°12'0 0.0
2017-Oct-12 00:00N 34°41' E 135°12'0 0.0
2017-Oct-11 23:30N 34°41' E 135°12'0 0.0
2017-Oct-11 23:00N 34°41' E 135°12'0 0.0
2017-Oct-11 22:30N 34°41' E 135°12'1 2.5
2017-Oct-11 22:00N 34°40' E 135°12'1019.5
2017-Oct-11 21:31N 34°30' E 135°08'1121.8
2017-Oct-11 21:00N 34°21' E 135°01'1020.7
2017-Oct-11 20:31N 34°11' E 134°58'1222.5
2017-Oct-11 20:00N 33°60' E 134°57'2 0.1
2017-Oct-10 12:34N 33°60' E 134°54'120.3
2017-Oct-10 12:30N 34°01' E 134°54'1020.7
2017-Oct-10 12:00N 34°11' E 134°56'1121.8
2017-Oct-10 11:29N 34°22' E 134°60'1122.7
2017-Oct-10 11:00N 34°31' E 135°06'919.0
2017-Oct-10 10:30N 34°40' E 135°11'1 2.1
2017-Oct-10 10:00N 34°41' E 135°12'0 0.0
2017-Oct-10 09:30N 34°41' E 135°12'0 0.0
2017-Oct-10 09:00N 34°41' E 135°12'0 0.0
2017-Oct-10 08:30N 34°41' E 135°12'0 0.0
2017-Oct-10 08:00N 34°41' E 135°12'0 0.0
2017-Oct-10 07:30N 34°41' E 135°12'0 0.0
2017-Oct-10 07:00N 34°41' E 135°12'0 0.0
2017-Oct-10 06:30N 34°41' E 135°12'0 0.0
2017-Oct-10 06:00N 34°41' E 135°12'0 0.0
2017-Oct-10 05:30N 34°41' E 135°12'0 0.0
2017-Oct-10 05:00N 34°41' E 135°12'0 0.0
2017-Oct-10 04:30N 34°41' E 135°12'0 0.0
2017-Oct-10 04:00N 34°41' E 135°12'0 0.0
2017-Oct-10 03:30N 34°41' E 135°12'0 0.0
2017-Oct-10 03:00N 34°41' E 135°12'0 0.0
2017-Oct-10 02:30N 34°41' E 135°12'0 0.0
2017-Oct-10 02:00N 34°41' E 135°12'0 0.0
2017-Oct-10 01:30N 34°41' E 135°12'0 0.0
2017-Oct-10 01:00N 34°41' E 135°12'0 0.0
2017-Oct-10 00:30N 34°41' E 135°12'0 0.0
2017-Oct-10 00:00N 34°41' E 135°12'0 0.0
2017-Oct-09 23:30N 34°41' E 135°12'0 0.0
2017-Oct-09 22:59N 34°41' E 135°12'0 0.0
2017-Oct-09 22:30N 34°41' E 135°12'1 2.1
2017-Oct-09 22:00N 34°40' E 135°12'1019.5
2017-Oct-09 21:30N 34°30' E 135°09'1122.2
2017-Oct-09 21:00N 34°21' E 135°02'1021.0
2017-Oct-09 20:30N 34°11' E 134°60'14 0.4
2017-Oct-08 11:34N 33°58' E 134°53'219.4
2017-Oct-08 11:30N 33°59' E 134°54'919.0
2017-Oct-08 11:01N 34°09' E 134°56'1019.5
2017-Oct-08 10:30N 34°18' E 134°59'918.8
2017-Oct-08 10:00N 34°27' E 135°03'1020.4
2017-Oct-08 09:30N 34°36' E 135°09'611.5
2017-Oct-08 09:01N 34°41' E 135°12'0 0.0
2017-Oct-08 08:30N 34°41' E 135°12'0 0.0
2017-Oct-08 08:01N 34°41' E 135°12'0 0.0
2017-Oct-08 07:30N 34°41' E 135°12'0 0.0
2017-Oct-08 07:00N 34°41' E 135°12'0 0.0
2017-Oct-08 06:31N 34°41' E 135°12'0 0.0
2017-Oct-08 06:00N 34°41' E 135°12'0 0.0
2017-Oct-08 05:30N 34°41' E 135°12'0 0.0
2017-Oct-08 05:00N 34°41' E 135°12'0 0.0
2017-Oct-08 04:30N 34°41' E 135°12'0 0.0
2017-Oct-08 04:00N 34°41' E 135°12'0 0.0
2017-Oct-08 03:30N 34°41' E 135°12'0 0.0
2017-Oct-08 03:00N 34°41' E 135°12'0 0.0
2017-Oct-08 02:30N 34°41' E 135°12'0 0.0
2017-Oct-08 02:00N 34°41' E 135°12'0 0.0
2017-Oct-08 01:30N 34°41' E 135°12'0 0.0
2017-Oct-08 01:00N 34°41' E 135°12'0 0.0
2017-Oct-08 00:31N 34°41' E 135°12'0 0.0
2017-Oct-08 00:00N 34°41' E 135°12'0 0.0
2017-Oct-07 23:30N 34°41' E 135°12'0 0.0
2017-Oct-07 23:01N 34°41' E 135°12'0 0.7
2017-Oct-07 22:30N 34°41' E 135°12'917.8
2017-Oct-07 22:00N 34°32' E 135°09'1223.0
2017-Oct-07 21:30N 34°22' E 135°02'1122.5
2017-Oct-07 21:00N 34°11' E 134°59'1223.2
2017-Oct-07 20:30N 33°60' E 134°56'3 0.1
2017-Oct-06 12:37N 33°57' E 134°55'  
Track history (hours):
 
Tides and Currents Weather Stations Pressure Air Temp Water Temp Dewpoint Dewpoint Depression Visibility Wind Speed Wind Dir Waves Ship Positions

Kobe Express

Last reported at 2017-Oct-16 12:36 UTC. Time now 2017-Oct-17 04:19 UTC.
Position N 33°58' E 134°55'.

Length 170 m; draft 6.5 m.

Type: Passenger vessel. MMSI: 431301684.

Date/timePositionNaut miles runAvg speedWind from/ knotsBaromVisibWave heightAir tempDewpointWater temp
2017-Oct-16 12:36N 33°58' E 134°55'222.1
2017-Oct-16 12:30N 34°00' E 134°55'1122.0
2017-Oct-16 12:00N 34°11' E 134°57'1121.5
2017-Oct-16 11:29N 34°22' E 135°00'1022.5
2017-Oct-16 11:01N 34°31' E 135°07'1019.1
2017-Oct-16 10:30N 34°40' E 135°12'1 2.0
2017-Oct-16 10:00N 34°41' E 135°12'0 0.0
2017-Oct-16 09:30N 34°41' E 135°12'0 0.0
2017-Oct-16 08:59N 34°41' E 135°12'0 0.0
2017-Oct-16 08:30N 34°41' E 135°12'0 0.0
2017-Oct-16 08:00N 34°41' E 135°12'0 0.0
2017-Oct-16 07:30N 34°41' E 135°12'0 0.0
2017-Oct-16 07:00N 34°41' E 135°12'0 0.0
2017-Oct-16 06:30N 34°41' E 135°12'0 0.0
2017-Oct-16 06:00N 34°41' E 135°12'0 0.0
2017-Oct-16 05:30N 34°41' E 135°12'0 0.0
2017-Oct-16 05:00N 34°41' E 135°12'0 0.0
2017-Oct-16 04:30N 34°41' E 135°12'0 0.0
2017-Oct-16 04:00N 34°41' E 135°12'0 0.0
2017-Oct-16 03:30N 34°41' E 135°12'0 0.0
2017-Oct-16 03:00N 34°41' E 135°12'0 0.0
2017-Oct-16 02:30N 34°41' E 135°12'0 0.0
2017-Oct-16 02:00N 34°41' E 135°12'0 0.0
2017-Oct-16 01:30N 34°41' E 135°12'0 0.0
2017-Oct-16 01:00N 34°41' E 135°12'0 0.0
2017-Oct-16 00:30N 34°41' E 135°12'0 0.0
2017-Oct-16 00:00N 34°41' E 135°12'0 0.0
2017-Oct-15 23:30N 34°41' E 135°12'0 0.0
2017-Oct-15 23:00N 34°41' E 135°12'0 0.0
2017-Oct-15 22:30N 34°41' E 135°12'3 6.5
2017-Oct-15 22:00N 34°38' E 135°11'1122.5
2017-Oct-15 21:30N 34°28' E 135°05'1223.2
2017-Oct-15 21:01N 34°17' E 134°59'1223.1
2017-Oct-15 20:31N 34°06' E 134°58'5 0.2
2017-Oct-14 12:17N 34°01' E 134°55'621.9
2017-Oct-14 12:00N 34°07' E 134°56'1122.3
2017-Oct-14 11:30N 34°18' E 134°58'1122.4
2017-Oct-14 11:00N 34°28' E 135°04'1121.8
2017-Oct-14 10:30N 34°37' E 135°10'4 7.6
2017-Oct-14 10:00N 34°41' E 135°12'0 0.0
2017-Oct-14 09:30N 34°41' E 135°12'0 0.0
2017-Oct-14 09:00N 34°41' E 135°12'0 0.0
2017-Oct-14 08:30N 34°41' E 135°12'0 0.0
2017-Oct-14 08:00N 34°41' E 135°12'0 0.0
2017-Oct-14 07:30N 34°41' E 135°12'0 0.0
2017-Oct-14 07:00N 34°41' E 135°12'0 0.0
2017-Oct-14 06:30N 34°41' E 135°12'0 0.0
2017-Oct-14 06:00N 34°41' E 135°12'0 0.0
2017-Oct-14 05:30N 34°41' E 135°12'0 0.0
2017-Oct-14 05:00N 34°41' E 135°12'0 0.0
2017-Oct-14 04:30N 34°41' E 135°12'0 0.0
2017-Oct-14 04:00N 34°41' E 135°12'0 0.0
2017-Oct-14 03:30N 34°41' E 135°12'0 0.0
2017-Oct-14 03:00N 34°41' E 135°12'0 0.0
2017-Oct-14 02:30N 34°41' E 135°12'0 0.0
2017-Oct-14 02:00N 34°41' E 135°12'0 0.0
2017-Oct-14 01:30N 34°41' E 135°12'0 0.0
2017-Oct-14 01:00N 34°41' E 135°12'0 0.0
2017-Oct-14 00:30N 34°41' E 135°12'0 0.0
2017-Oct-14 00:00N 34°41' E 135°12'0 0.0
2017-Oct-13 23:30N 34°41' E 135°12'0 0.0
2017-Oct-13 23:00N 34°41' E 135°12'0 0.0
2017-Oct-13 22:30N 34°41' E 135°12'0 0.4
2017-Oct-13 22:00N 34°41' E 135°12'816.4
2017-Oct-13 21:31N 34°33' E 135°09'1122.7
2017-Oct-13 21:00N 34°23' E 135°03'1122.2
2017-Oct-13 20:30N 34°12' E 134°59'1223.3
2017-Oct-13 20:00N 34°01' E 134°56'4 0.1
2017-Oct-12 12:23N 33°59' E 134°53'821.6
2017-Oct-12 12:00N 34°07' E 134°55'1122.9
2017-Oct-12 11:30N 34°18' E 134°58'1122.5
2017-Oct-12 11:00N 34°28' E 135°04'1121.8
2017-Oct-12 10:30N 34°38' E 135°10'4 7.3
2017-Oct-12 10:00N 34°41' E 135°12'0 0.0
2017-Oct-12 09:30N 34°41' E 135°12'0 0.0
2017-Oct-12 09:00N 34°41' E 135°12'0 0.0
2017-Oct-12 08:30N 34°41' E 135°12'0 0.0
2017-Oct-12 08:00N 34°41' E 135°12'0 0.0
2017-Oct-12 07:30N 34°41' E 135°12'0 0.0
2017-Oct-12 07:00N 34°41' E 135°12'0 0.0
2017-Oct-12 06:30N 34°41' E 135°12'0 0.0
2017-Oct-12 06:00N 34°41' E 135°12'0 0.0
2017-Oct-12 05:30N 34°41' E 135°12'0 0.0
2017-Oct-12 05:00N 34°41' E 135°12'0 0.0
2017-Oct-12 04:30N 34°41' E 135°12'0 0.0
2017-Oct-12 04:00N 34°41' E 135°12'0 0.0
2017-Oct-12 03:30N 34°41' E 135°12'0 0.0
2017-Oct-12 03:00N 34°41' E 135°12'0 0.0
2017-Oct-12 02:30N 34°41' E 135°12'0 0.0
2017-Oct-12 02:00N 34°41' E 135°12'0 0.0
2017-Oct-12 01:30N 34°41' E 135°12'0 0.0
2017-Oct-12 01:00N 34°41' E 135°12'0 0.0
2017-Oct-12 00:30N 34°41' E 135°12'0 0.0
2017-Oct-12 00:00N 34°41' E 135°12'0 0.0
2017-Oct-11 23:30N 34°41' E 135°12'0 0.0
2017-Oct-11 23:00N 34°41' E 135°12'0 0.0
2017-Oct-11 22:30N 34°41' E 135°12'1 2.5
2017-Oct-11 22:00N 34°40' E 135°12'1019.5
2017-Oct-11 21:31N 34°30' E 135°08'1121.8
2017-Oct-11 21:00N 34°21' E 135°01'1020.7
2017-Oct-11 20:31N 34°11' E 134°58'1222.5
2017-Oct-11 20:00N 33°60' E 134°57'2 0.1
2017-Oct-10 12:34N 33°60' E 134°54'120.3
2017-Oct-10 12:30N 34°01' E 134°54'1020.7
2017-Oct-10 12:00N 34°11' E 134°56'1121.8
2017-Oct-10 11:29N 34°22' E 134°60'1122.7
2017-Oct-10 11:00N 34°31' E 135°06'919.0
2017-Oct-10 10:30N 34°40' E 135°11'1 2.1
2017-Oct-10 10:00N 34°41' E 135°12'0 0.0
2017-Oct-10 09:30N 34°41' E 135°12'0 0.0
2017-Oct-10 09:00N 34°41' E 135°12'0 0.0
2017-Oct-10 08:30N 34°41' E 135°12'0 0.0
2017-Oct-10 08:00N 34°41' E 135°12'0 0.0
2017-Oct-10 07:30N 34°41' E 135°12'0 0.0
2017-Oct-10 07:00N 34°41' E 135°12'0 0.0
2017-Oct-10 06:30N 34°41' E 135°12'0 0.0
2017-Oct-10 06:00N 34°41' E 135°12'0 0.0
2017-Oct-10 05:30N 34°41' E 135°12'0 0.0
2017-Oct-10 05:00N 34°41' E 135°12'0 0.0
2017-Oct-10 04:30N 34°41' E 135°12'0 0.0
2017-Oct-10 04:00N 34°41' E 135°12'0 0.0
2017-Oct-10 03:30N 34°41' E 135°12'0 0.0
2017-Oct-10 03:00N 34°41' E 135°12'0 0.0
2017-Oct-10 02:30N 34°41' E 135°12'0 0.0
2017-Oct-10 02:00N 34°41' E 135°12'0 0.0
2017-Oct-10 01:30N 34°41' E 135°12'0 0.0
2017-Oct-10 01:00N 34°41' E 135°12'0 0.0
2017-Oct-10 00:30N 34°41' E 135°12'0 0.0
2017-Oct-10 00:00N 34°41' E 135°12'0 0.0
2017-Oct-09 23:30N 34°41' E 135°12'0 0.0
2017-Oct-09 22:59N 34°41' E 135°12'0 0.0
2017-Oct-09 22:30N 34°41' E 135°12'1 2.1
2017-Oct-09 22:00N 34°40' E 135°12'1019.5
2017-Oct-09 21:30N 34°30' E 135°09'1122.2
2017-Oct-09 21:00N 34°21' E 135°02'1021.0
2017-Oct-09 20:30N 34°11' E 134°60'14 0.4
2017-Oct-08 11:34N 33°58' E 134°53'219.4
2017-Oct-08 11:30N 33°59' E 134°54'919.0
2017-Oct-08 11:01N 34°09' E 134°56'1019.5
2017-Oct-08 10:30N 34°18' E 134°59'918.8
2017-Oct-08 10:00N 34°27' E 135°03'1020.4
2017-Oct-08 09:30N 34°36' E 135°09'611.5
2017-Oct-08 09:01N 34°41' E 135°12'0 0.0
2017-Oct-08 08:30N 34°41' E 135°12'0 0.0
2017-Oct-08 08:01N 34°41' E 135°12'0 0.0
2017-Oct-08 07:30N 34°41' E 135°12'0 0.0
2017-Oct-08 07:00N 34°41' E 135°12'0 0.0
2017-Oct-08 06:31N 34°41' E 135°12'0 0.0
2017-Oct-08 06:00N 34°41' E 135°12'0 0.0
2017-Oct-08 05:30N 34°41' E 135°12'0 0.0
2017-Oct-08 05:00N 34°41' E 135°12'0 0.0
2017-Oct-08 04:30N 34°41' E 135°12'0 0.0
2017-Oct-08 04:00N 34°41' E 135°12'0 0.0
2017-Oct-08 03:30N 34°41' E 135°12'0 0.0
2017-Oct-08 03:00N 34°41' E 135°12'0 0.0
2017-Oct-08 02:30N 34°41' E 135°12'0 0.0
2017-Oct-08 02:00N 34°41' E 135°12'0 0.0
2017-Oct-08 01:30N 34°41' E 135°12'0 0.0
2017-Oct-08 01:00N 34°41' E 135°12'0 0.0
2017-Oct-08 00:31N 34°41' E 135°12'0 0.0
2017-Oct-08 00:00N 34°41' E 135°12'0 0.0
2017-Oct-07 23:30N 34°41' E 135°12'0 0.0
2017-Oct-07 23:01N 34°41' E 135°12'0 0.7
2017-Oct-07 22:30N 34°41' E 135°12'917.8
2017-Oct-07 22:00N 34°32' E 135°09'1223.0
2017-Oct-07 21:30N 34°22' E 135°02'1122.5
2017-Oct-07 21:00N 34°11' E 134°59'1223.2
2017-Oct-07 20:30N 33°60' E 134°56'3 0.1
2017-Oct-06 12:37N 33°57' E 134°55'  

Dump ship's entire track history